createdAt,value
2023-04-22T00:00:38.346Z,99.90
2023-04-22T00:03:08.797Z,99.90
2023-04-22T00:05:38.099Z,99.90
2023-04-22T00:08:06.895Z,99.90
2023-04-22T00:10:35.629Z,99.90
2023-04-22T00:13:05.633Z,99.90
2023-04-22T00:15:34.315Z,99.90
2023-04-22T00:18:03.027Z,99.90
2023-04-22T00:20:32.616Z,99.90
2023-04-22T00:23:01.165Z,99.90
2023-04-22T00:25:29.770Z,99.90
2023-04-22T00:27:58.439Z,99.90
2023-04-22T00:30:28.480Z,99.90
2023-04-22T00:32:57.119Z,99.90
2023-04-22T00:35:25.772Z,99.90
2023-04-22T00:37:55.247Z,99.90
2023-04-22T00:40:24.002Z,99.90
2023-04-22T00:42:52.990Z,99.90
2023-04-22T00:45:21.995Z,99.90
2023-04-22T00:47:52.256Z,99.90
2023-04-22T00:50:20.825Z,99.90
2023-04-22T00:52:49.551Z,99.90
2023-04-22T00:55:18.171Z,99.90
2023-04-22T00:57:46.790Z,99.90
2023-04-22T01:00:15.653Z,99.90
2023-04-22T01:02:44.477Z,99.90
2023-04-22T01:05:15.059Z,99.90
2023-04-22T01:07:43.682Z,99.90
2023-04-22T01:10:12.745Z,99.90
2023-04-22T01:12:41.353Z,99.90
2023-04-22T01:15:11.540Z,99.90
2023-04-22T01:17:40.275Z,99.90
2023-04-22T01:20:10.884Z,99.90
2023-04-22T01:22:43.958Z,99.90
2023-04-22T01:25:14.455Z,99.90
2023-04-22T01:27:44.382Z,99.90
2023-04-22T01:30:13.773Z,99.90
2023-04-22T01:32:43.062Z,99.90
2023-04-22T01:35:12.588Z,99.90
2023-04-22T01:37:41.461Z,99.90
2023-04-22T01:40:13.939Z,99.90
2023-04-22T01:42:43.027Z,99.90
2023-04-22T01:45:13.437Z,99.90
2023-04-22T01:47:42.021Z,99.90
2023-04-22T01:50:11.612Z,99.90
2023-04-22T01:52:40.329Z,99.90
2023-04-22T01:55:10.538Z,99.90
2023-04-22T01:57:40.702Z,99.90
2023-04-22T02:00:10.948Z,99.90
2023-04-22T02:02:39.634Z,99.90
2023-04-22T02:05:09.296Z,99.90
2023-04-22T02:07:38.037Z,99.90
2023-04-22T02:10:07.439Z,99.90
2023-04-22T02:12:36.265Z,99.90
2023-04-22T02:15:07.487Z,99.90
2023-04-22T02:17:36.214Z,99.90
2023-04-22T02:20:05.437Z,99.90
2023-04-22T02:22:34.696Z,99.90
2023-04-22T02:25:03.526Z,99.90
2023-04-22T02:27:32.188Z,99.90
2023-04-22T02:30:01.302Z,99.90
2023-04-22T02:32:31.799Z,99.90
2023-04-22T02:35:00.378Z,99.90
2023-04-22T02:37:28.961Z,99.90
2023-04-22T02:39:57.505Z,99.90
2023-04-22T02:42:26.196Z,99.90
2023-04-22T02:44:54.727Z,99.90
2023-04-22T02:47:23.612Z,99.90
2023-04-22T02:49:53.742Z,99.90
2023-04-22T02:52:22.381Z,99.90
2023-04-22T02:54:50.916Z,99.90
2023-04-22T02:57:19.483Z,99.90
2023-04-22T02:59:48.073Z,99.90
2023-04-22T03:02:16.841Z,99.90
2023-04-22T03:04:46.992Z,99.90
2023-04-22T03:07:16.993Z,99.90
2023-04-22T03:09:45.589Z,99.90
2023-04-22T03:12:14.139Z,99.90
2023-04-22T03:14:42.699Z,99.90
2023-04-22T03:17:11.299Z,99.90
2023-04-22T03:19:40.007Z,99.90
2023-04-22T03:22:08.752Z,99.90
2023-04-22T03:24:38.746Z,99.90
2023-04-22T03:27:07.813Z,99.90
2023-04-22T03:29:36.551Z,99.90
2023-04-22T03:32:05.184Z,99.90
2023-04-22T03:34:35.860Z,99.90
2023-04-22T03:37:05.749Z,99.90
2023-04-22T03:39:34.697Z,99.90
2023-04-22T03:42:04.663Z,99.90
2023-04-22T03:44:33.226Z,99.90
2023-04-22T03:47:01.804Z,99.90
2023-04-22T03:49:30.879Z,99.90
2023-04-22T03:51:59.567Z,99.90
2023-04-22T03:54:28.947Z,99.90
2023-04-22T03:56:58.236Z,99.90
2023-04-22T03:59:28.252Z,99.90
2023-04-22T04:01:56.858Z,99.90
2023-04-22T04:04:25.679Z,99.90
2023-04-22T04:06:54.586Z,99.90
2023-04-22T04:09:23.245Z,99.90
2023-04-22T04:11:51.877Z,99.90
2023-04-22T04:14:20.539Z,99.90
2023-04-22T04:16:50.521Z,99.90
2023-04-22T04:19:19.019Z,99.90
2023-04-22T04:21:47.742Z,99.90
2023-04-22T04:24:16.372Z,99.90
2023-04-22T04:26:44.880Z,99.90
2023-04-22T04:29:13.834Z,99.90
2023-04-22T04:31:42.979Z,99.90
2023-04-22T04:34:13.256Z,99.90
2023-04-22T04:36:42.775Z,99.90
2023-04-22T04:39:11.427Z,99.90
2023-04-22T04:41:41.444Z,99.90
2023-04-22T04:44:10.626Z,99.90
2023-04-22T04:46:39.189Z,99.90
2023-04-22T04:49:12.841Z,99.90
2023-04-22T04:51:42.923Z,99.90
2023-04-22T04:54:11.459Z,99.90
2023-04-22T04:56:40.091Z,99.90
2023-04-22T04:59:08.690Z,99.90
2023-04-22T05:01:37.297Z,99.90
2023-04-22T05:04:06.155Z,99.90
2023-04-22T05:06:34.955Z,99.90
2023-04-22T05:09:05.031Z,99.90
2023-04-22T05:11:33.669Z,99.90
2023-04-22T05:14:02.230Z,99.90
2023-04-22T05:16:30.948Z,99.90
2023-04-22T05:18:59.581Z,99.90
2023-04-22T05:21:28.109Z,99.90
2023-04-22T05:23:56.886Z,99.90
2023-04-22T05:26:27.324Z,99.90
2023-04-22T05:28:56.010Z,99.90
2023-04-22T05:31:24.539Z,99.90
2023-04-22T05:33:53.074Z,99.90
2023-04-22T05:36:21.727Z,99.90
2023-04-22T05:38:50.267Z,99.90
2023-04-22T05:41:18.745Z,99.90
2023-04-22T05:43:48.742Z,99.90
2023-04-22T05:46:17.537Z,99.90
2023-04-22T05:48:46.132Z,99.90
2023-04-22T05:51:14.731Z,99.90
2023-04-22T05:53:43.324Z,99.90
2023-04-22T05:56:11.828Z,99.90
2023-04-22T05:58:40.472Z,99.90
2023-04-22T06:01:11.394Z,99.90
2023-04-22T06:03:40.336Z,99.90
2023-04-22T06:06:09.585Z,99.90
2023-04-22T06:08:38.160Z,99.90
2023-04-22T06:11:06.850Z,99.90
2023-04-22T06:13:35.408Z,99.90
2023-04-22T06:16:05.245Z,99.90
2023-04-22T06:18:38.132Z,99.90
2023-04-22T06:21:07.278Z,99.90
2023-04-22T06:23:36.316Z,99.90
2023-04-22T06:26:05.239Z,99.90
2023-04-22T06:28:33.924Z,99.90
2023-04-22T06:31:03.988Z,99.90
2023-04-22T06:33:32.513Z,99.90
2023-04-22T06:36:02.618Z,99.90
2023-04-22T06:38:31.238Z,99.90
2023-04-22T06:40:59.931Z,99.90
2023-04-22T06:43:28.475Z,99.90
2023-04-22T06:45:56.988Z,99.90
2023-04-22T06:48:28.681Z,99.90
2023-04-22T06:50:57.571Z,99.90
2023-04-22T06:53:27.580Z,99.90
2023-04-22T06:55:56.062Z,99.90
2023-04-22T06:58:24.584Z,99.90
2023-04-22T07:00:53.131Z,99.90
2023-04-22T07:03:21.802Z,99.90
2023-04-22T07:05:50.457Z,99.90
2023-04-22T07:08:19.902Z,99.90
2023-04-22T07:10:49.968Z,99.90
2023-04-22T07:13:18.478Z,99.90
2023-04-22T07:15:47.441Z,99.90
2023-04-22T07:18:16.234Z,99.90
2023-04-22T07:20:44.830Z,99.90
2023-04-22T07:23:13.343Z,99.90
2023-04-22T07:25:41.863Z,99.90
2023-04-22T07:28:11.924Z,99.90
2023-04-22T07:30:40.601Z,99.90
2023-04-22T07:33:09.178Z,99.90
2023-04-22T07:35:38.981Z,99.90
2023-04-22T07:38:08.825Z,99.90
2023-04-22T07:40:38.372Z,99.90
2023-04-22T07:43:06.997Z,99.90
2023-04-22T07:45:37.219Z,99.90
2023-04-22T07:48:06.752Z,99.90
2023-04-22T07:50:38.093Z,99.90
2023-04-22T07:53:07.328Z,99.90
2023-04-22T07:55:36.083Z,99.90
2023-04-22T07:58:06.781Z,99.90
2023-04-22T08:00:37.508Z,99.90
2023-04-22T08:03:06.864Z,99.80
2023-04-22T08:05:35.525Z,99.00
2023-04-22T08:08:04.145Z,98.30
2023-04-22T08:10:32.792Z,98.00
2023-04-22T08:13:01.683Z,98.20
2023-04-22T08:15:30.515Z,98.40
2023-04-22T08:18:00.766Z,98.60
2023-04-22T08:20:29.858Z,98.10
2023-04-22T08:23:00.659Z,99.20
2023-04-22T08:25:30.794Z,99.50
2023-04-22T08:27:59.564Z,97.70
2023-04-22T08:30:28.586Z,97.20
2023-04-22T08:32:57.284Z,97.00
2023-04-22T08:35:27.573Z,96.30
2023-04-22T08:37:56.189Z,95.80
2023-04-22T08:40:24.762Z,94.90
2023-04-22T08:42:54.028Z,94.40
2023-04-22T08:45:23.199Z,92.90
2023-04-22T08:47:51.971Z,93.60
2023-04-22T08:50:22.638Z,93.30
2023-04-22T08:52:52.821Z,94.30
2023-04-22T08:55:21.859Z,93.20
2023-04-22T08:57:51.274Z,92.80
2023-04-22T09:00:20.869Z,92.90
2023-04-22T09:02:51.673Z,92.50
2023-04-22T09:05:24.769Z,91.90
2023-04-22T09:07:58.301Z,91.90
2023-04-22T09:10:28.638Z,91.00
2023-04-22T09:12:58.030Z,90.90
2023-04-22T09:15:27.971Z,90.70
2023-04-22T09:17:58.845Z,90.60
2023-04-22T09:20:28.911Z,90.00
2023-04-22T09:23:03.568Z,89.60
2023-04-22T09:25:39.944Z,90.00
2023-04-22T09:28:13.222Z,90.20
2023-04-22T09:30:57.523Z,88.80
2023-04-22T09:33:32.121Z,90.10
2023-04-22T09:36:01.246Z,87.80
2023-04-22T09:38:33.234Z,89.50
2023-04-22T09:41:05.219Z,88.40
2023-04-22T09:43:35.076Z,87.40
2023-04-22T09:46:03.938Z,89.20
2023-04-22T09:49:00.760Z,89.60
2023-04-22T09:51:32.323Z,89.60
2023-04-22T09:54:06.927Z,90.60
2023-04-22T09:56:48.869Z,90.00
2023-04-22T09:59:23.541Z,87.90
2023-04-22T10:02:04.702Z,86.80
2023-04-22T10:04:39.020Z,86.70
2023-04-22T10:07:07.862Z,87.90
2023-04-22T10:09:38.633Z,86.80
2023-04-22T10:12:08.440Z,88.00
2023-04-22T10:14:37.855Z,85.40
2023-04-22T10:17:07.831Z,84.50
2023-04-22T10:19:38.160Z,83.80
2023-04-22T10:22:13.027Z,84.30
2023-04-22T10:24:53.628Z,84.60
2023-04-22T10:27:24.127Z,84.30
2023-04-22T10:29:53.411Z,84.90
2023-04-22T10:32:46.216Z,83.50
2023-04-22T10:35:16.719Z,83.00
2023-04-22T10:37:49.307Z,83.60
2023-04-22T10:40:20.146Z,83.40
2023-04-22T10:42:52.719Z,82.20
2023-04-22T10:45:26.792Z,81.50
2023-04-22T10:47:55.644Z,84.90
2023-04-22T10:50:26.809Z,87.30
2023-04-22T10:53:03.421Z,81.90
2023-04-22T10:55:52.022Z,83.70
2023-04-22T10:58:21.967Z,82.00
2023-04-22T11:00:54.539Z,80.70
2023-04-22T11:03:29.483Z,79.20
2023-04-22T11:06:18.800Z,78.60
2023-04-22T11:08:48.670Z,79.00
2023-04-22T11:11:20.883Z,80.70
2023-04-22T11:13:52.112Z,80.00
2023-04-22T11:16:25.914Z,80.90
2023-04-22T11:18:54.747Z,76.60
2023-04-22T11:21:28.231Z,78.70
2023-04-22T11:24:05.597Z,82.80
2023-04-22T11:26:41.634Z,80.80
2023-04-22T11:29:18.767Z,78.10
2023-04-22T11:31:52.983Z,79.40
2023-04-22T11:34:22.148Z,79.40
2023-04-22T11:36:51.148Z,78.30
2023-04-22T11:39:22.375Z,77.00
2023-04-22T11:41:52.952Z,77.90
2023-04-22T11:44:25.976Z,76.30
2023-04-22T11:46:59.728Z,76.60
2023-04-22T11:49:28.602Z,76.30
2023-04-22T11:52:00.449Z,77.30
2023-04-22T11:54:34.144Z,76.20
2023-04-22T11:57:08.534Z,78.10
2023-04-22T11:59:37.795Z,76.70
2023-04-22T12:02:07.957Z,75.00
2023-04-22T12:04:40.640Z,74.30
2023-04-22T12:07:09.402Z,71.90
2023-04-22T12:09:38.261Z,71.50
2023-04-22T12:12:08.915Z,71.50
2023-04-22T12:14:37.735Z,69.80
2023-04-22T12:17:07.968Z,70.10
2023-04-22T12:19:36.925Z,70.00
2023-04-22T12:22:07.437Z,70.70
2023-04-22T12:24:39.089Z,69.60
2023-04-22T12:27:09.428Z,69.80
2023-04-22T12:29:40.771Z,70.60
2023-04-22T12:32:09.964Z,70.20
2023-04-22T12:34:39.165Z,69.40
2023-04-22T12:37:12.053Z,66.60
2023-04-22T12:39:41.268Z,65.20
2023-04-22T12:42:12.127Z,64.50
2023-04-22T12:44:45.731Z,65.50
2023-04-22T12:47:14.497Z,65.60
2023-04-22T12:49:47.062Z,64.10
2023-04-22T12:52:16.281Z,66.70
2023-04-22T12:54:44.821Z,66.60
2023-04-22T12:57:14.954Z,66.10
2023-04-22T12:59:44.980Z,65.70
2023-04-22T13:02:13.653Z,65.90
2023-04-22T13:04:42.500Z,66.00
2023-04-22T13:07:11.220Z,64.00
2023-04-22T13:09:40.267Z,64.80
2023-04-22T13:12:09.088Z,65.60
2023-04-22T13:14:39.216Z,65.00
2023-04-22T13:17:08.177Z,65.40
2023-04-22T13:19:36.881Z,66.00
2023-04-22T13:22:05.453Z,63.70
2023-04-22T13:24:34.120Z,65.80
2023-04-22T13:27:03.045Z,66.70
2023-04-22T13:29:31.693Z,65.40
2023-04-22T13:32:01.838Z,64.20
2023-04-22T13:34:30.446Z,61.30
2023-04-22T13:36:59.687Z,61.30
2023-04-22T13:39:28.348Z,60.00
2023-04-22T13:41:57.084Z,60.70
2023-04-22T13:44:25.809Z,61.70
2023-04-22T13:46:54.390Z,61.80
2023-04-22T13:49:24.413Z,61.90
2023-04-22T13:51:53.367Z,59.70
2023-04-22T13:54:22.421Z,59.50
2023-04-22T13:56:51.332Z,61.10
2023-04-22T13:59:19.911Z,60.00
2023-04-22T14:01:48.480Z,58.80
2023-04-22T14:04:17.180Z,59.20
2023-04-22T14:06:47.326Z,60.30
2023-04-22T14:09:16.040Z,58.20
2023-04-22T14:11:44.668Z,58.80
2023-04-22T14:14:13.256Z,58.10
2023-04-22T14:16:41.817Z,56.80
2023-04-22T14:19:10.643Z,57.60
2023-04-22T14:21:39.272Z,57.20
2023-04-22T14:24:09.317Z,57.70
2023-04-22T14:26:38.049Z,59.60
2023-04-22T14:29:06.732Z,59.50
2023-04-22T14:31:35.577Z,60.90
2023-04-22T14:34:04.519Z,61.90
2023-04-22T14:36:33.199Z,61.60
2023-04-22T14:39:01.782Z,61.20
2023-04-22T14:41:31.847Z,60.30
2023-04-22T14:44:25.368Z,61.50
2023-04-22T14:46:53.946Z,60.90
2023-04-22T14:49:22.469Z,62.40
2023-04-22T14:51:51.458Z,62.10
2023-04-22T14:54:20.102Z,62.40
2023-04-22T14:56:52.300Z,63.20
2023-04-22T14:59:20.818Z,63.20
2023-04-22T15:01:49.723Z,63.80
2023-04-22T15:04:19.520Z,63.10
2023-04-22T15:06:48.221Z,63.10
2023-04-22T15:09:17.148Z,61.90
2023-04-22T15:11:45.747Z,62.00
2023-04-22T15:14:17.208Z,63.20
2023-04-22T15:16:46.165Z,64.30
2023-04-22T15:19:16.066Z,64.60
2023-04-22T15:21:44.949Z,65.40
2023-04-22T15:24:13.629Z,65.60
2023-04-22T15:26:42.199Z,65.30
2023-04-22T15:29:10.951Z,65.60
2023-04-22T15:31:41.257Z,65.10
2023-04-22T15:34:09.844Z,63.00
2023-04-22T15:36:38.717Z,63.80
2023-04-22T15:39:09.766Z,64.10
2023-04-22T15:41:38.614Z,63.60
2023-04-22T15:44:08.755Z,62.50
2023-04-22T15:46:38.730Z,62.70
2023-04-22T15:49:09.161Z,60.50
2023-04-22T15:51:37.821Z,60.10
2023-04-22T15:54:08.759Z,61.00
2023-04-22T15:56:37.669Z,61.90
2023-04-22T15:59:06.257Z,62.50
2023-04-22T16:01:34.963Z,62.20
2023-04-22T16:04:03.875Z,63.80
2023-04-22T16:06:34.128Z,61.30
2023-04-22T16:09:02.808Z,62.00
2023-04-22T16:11:31.382Z,63.90
2023-04-22T16:14:00.007Z,62.00
2023-04-22T16:16:28.578Z,62.00
2023-04-22T16:18:57.429Z,63.10
2023-04-22T16:21:26.566Z,64.20
2023-04-22T16:23:56.709Z,65.70
2023-04-22T16:26:25.448Z,65.70
2023-04-22T16:28:55.080Z,66.30
2023-04-22T16:31:24.349Z,67.20
2023-04-22T16:34:03.533Z,63.70
2023-04-22T16:36:52.347Z,66.50
2023-04-22T16:39:22.604Z,65.00
2023-04-22T16:41:53.928Z,63.70
2023-04-22T16:44:23.105Z,62.90
2023-04-22T16:46:54.831Z,63.50
2023-04-22T16:49:24.089Z,64.10
2023-04-22T16:51:58.127Z,64.90
2023-04-22T16:54:41.484Z,67.00
2023-04-22T16:57:11.903Z,66.20
2023-04-22T16:59:44.478Z,65.80
2023-04-22T17:02:13.644Z,64.90
2023-04-22T17:04:43.128Z,65.80
2023-04-22T17:07:15.060Z,66.30
2023-04-22T17:09:45.784Z,66.70
2023-04-22T17:12:16.047Z,66.60
2023-04-22T17:14:45.221Z,67.10
2023-04-22T17:17:14.783Z,68.00
2023-04-22T17:19:44.521Z,68.10
2023-04-22T17:22:13.828Z,69.00
2023-04-22T17:24:44.920Z,69.20
2023-04-22T17:27:15.517Z,70.30
2023-04-22T17:29:44.693Z,70.90
2023-04-22T17:32:28.947Z,71.30
2023-04-22T17:35:00.631Z,71.80
2023-04-22T17:37:29.978Z,72.00
2023-04-22T17:40:02.433Z,73.10
2023-04-22T17:42:44.793Z,75.00
2023-04-22T17:45:14.866Z,77.30
2023-04-22T17:47:45.676Z,78.70
2023-04-22T17:50:14.846Z,78.20
2023-04-22T17:52:44.303Z,78.70
2023-04-22T17:55:14.730Z,79.20
2023-04-22T17:57:43.691Z,79.80
2023-04-22T18:00:14.865Z,80.60
2023-04-22T18:02:44.141Z,81.80
2023-04-22T18:05:13.565Z,81.60
2023-04-22T18:07:43.249Z,81.50
2023-04-22T18:10:14.548Z,82.30
2023-04-22T18:12:43.695Z,82.70
2023-04-22T18:15:13.032Z,82.90
2023-04-22T18:17:41.779Z,83.10
2023-04-22T18:20:18.322Z,83.60
2023-04-22T18:22:49.092Z,83.30
2023-04-22T18:25:19.670Z,83.30
2023-04-22T18:27:50.361Z,83.30
2023-04-22T18:30:19.406Z,83.30
2023-04-22T18:32:48.644Z,82.90
2023-04-22T18:35:17.958Z,83.50
2023-04-22T18:37:47.209Z,83.80
2023-04-22T18:40:17.798Z,85.00
2023-04-22T18:42:48.419Z,86.10
2023-04-22T18:45:17.587Z,86.80
2023-04-22T18:47:47.237Z,88.00
2023-04-22T18:50:16.222Z,89.10
2023-04-22T18:52:48.969Z,90.10
2023-04-22T18:55:17.923Z,90.00
2023-04-22T18:57:48.135Z,90.40
2023-04-22T19:00:17.507Z,91.10
2023-04-22T19:02:46.649Z,91.10
2023-04-22T19:05:15.435Z,91.80
2023-04-22T19:07:45.332Z,92.30
2023-04-22T19:10:14.442Z,92.70
2023-04-22T19:12:43.353Z,93.00
2023-04-22T19:15:14.752Z,93.00
2023-04-22T19:17:44.697Z,93.60
2023-04-22T19:20:14.284Z,94.10
2023-04-22T19:22:44.266Z,94.30
2023-04-22T19:25:13.470Z,94.50
2023-04-22T19:27:42.634Z,94.70
2023-04-22T19:30:15.230Z,94.70
2023-04-22T19:32:44.857Z,95.00
2023-04-22T19:35:16.678Z,95.20
2023-04-22T19:37:46.016Z,95.40
2023-04-22T19:40:18.731Z,95.90
2023-04-22T19:42:50.134Z,96.20
2023-04-22T19:45:21.537Z,96.80
2023-04-22T19:47:51.653Z,97.40
2023-04-22T19:50:21.174Z,97.40
2023-04-22T19:52:58.326Z,97.50
2023-04-22T19:55:27.951Z,97.70
2023-04-22T19:57:59.150Z,97.90
2023-04-22T20:00:29.673Z,98.00
2023-04-22T20:02:58.819Z,98.10
2023-04-22T20:05:28.582Z,98.50
2023-04-22T20:07:59.835Z,98.60
2023-04-22T20:10:29.535Z,98.50
2023-04-22T20:12:58.409Z,98.70
2023-04-22T20:15:29.211Z,98.90
2023-04-22T20:17:58.308Z,99.20
2023-04-22T20:20:27.727Z,99.20
2023-04-22T20:22:57.665Z,99.60
2023-04-22T20:25:47.114Z,99.80
2023-04-22T20:28:16.571Z,99.90
2023-04-22T20:30:47.481Z,99.90
2023-04-22T20:33:18.041Z,99.90
2023-04-22T20:35:48.250Z,99.90
2023-04-22T20:38:19.712Z,99.90
2023-04-22T20:40:49.210Z,99.90
2023-04-22T20:43:18.341Z,99.90
2023-04-22T20:45:48.912Z,99.90
2023-04-22T20:48:21.269Z,99.90
2023-04-22T20:50:50.905Z,99.90
2023-04-22T20:53:19.875Z,99.90
2023-04-22T20:55:48.788Z,99.90
2023-04-22T20:58:17.438Z,99.90
2023-04-22T21:00:48.523Z,99.90
2023-04-22T21:03:19.853Z,99.90
2023-04-22T21:05:48.947Z,99.90
2023-04-22T21:08:23.912Z,99.90
2023-04-22T21:10:54.132Z,99.90
2023-04-22T21:13:23.641Z,99.90
2023-04-22T21:15:59.424Z,99.90
2023-04-22T21:18:29.453Z,99.90
2023-04-22T21:20:58.600Z,99.90
2023-04-22T21:23:28.264Z,99.90
2023-04-22T21:25:58.334Z,99.90
2023-04-22T21:28:28.198Z,99.90
2023-04-22T21:30:59.110Z,99.90
2023-04-22T21:33:27.812Z,99.90
2023-04-22T21:35:56.547Z,99.90
2023-04-22T21:38:25.230Z,99.90
2023-04-22T21:40:55.198Z,99.90
2023-04-22T21:43:23.713Z,99.90
2023-04-22T21:45:57.186Z,99.90
2023-04-22T21:48:29.007Z,99.90
2023-04-22T21:50:58.850Z,99.90
2023-04-22T21:53:27.582Z,99.90
2023-04-22T21:55:56.276Z,99.90
2023-04-22T21:58:24.944Z,99.90
2023-04-22T22:00:53.690Z,99.90
2023-04-22T22:03:22.544Z,99.90
2023-04-22T22:05:52.790Z,99.90
2023-04-22T22:08:21.790Z,99.90
2023-04-22T22:10:50.405Z,99.90
2023-04-22T22:13:18.849Z,99.90
2023-04-22T22:15:47.990Z,99.90
2023-04-22T22:18:16.548Z,99.90
2023-04-22T22:20:45.263Z,99.90
2023-04-22T22:23:15.285Z,99.90
2023-04-22T22:25:43.739Z,99.90
2023-04-22T22:28:12.240Z,99.90
2023-04-22T22:30:41.196Z,99.90
2023-04-22T22:33:09.756Z,99.90
2023-04-22T22:35:38.217Z,99.90
2023-04-22T22:38:06.875Z,99.90
2023-04-22T22:40:36.915Z,99.90
2023-04-22T22:43:05.469Z,99.90
2023-04-22T22:45:34.132Z,99.90
2023-04-22T22:48:02.866Z,99.90
2023-04-22T22:50:31.597Z,99.90
2023-04-22T22:53:00.683Z,99.90
2023-04-22T22:55:29.345Z,99.90
2023-04-22T22:57:59.454Z,99.90
2023-04-22T23:00:28.189Z,99.90
2023-04-22T23:02:57.192Z,99.90
2023-04-22T23:05:25.912Z,99.90
2023-04-22T23:07:54.507Z,99.90
2023-04-22T23:10:23.279Z,99.90
2023-04-22T23:12:51.931Z,99.90
2023-04-22T23:15:22.095Z,99.90
2023-04-22T23:17:51.717Z,99.90
2023-04-22T23:20:21.391Z,99.90
2023-04-22T23:22:52.394Z,99.90
2023-04-22T23:25:21.567Z,99.90
2023-04-22T23:27:51.043Z,99.90
2023-04-22T23:30:22.295Z,99.90
2023-04-22T23:32:53.386Z,99.90
2023-04-22T23:35:22.506Z,99.90
2023-04-22T23:37:53.456Z,99.90
2023-04-22T23:40:22.342Z,99.90
2023-04-22T23:42:51.192Z,99.90
2023-04-22T23:45:21.356Z,99.90
2023-04-22T23:47:50.199Z,99.90
2023-04-22T23:50:19.414Z,99.90
2023-04-22T23:52:48.043Z,99.90
2023-04-22T23:55:17.951Z,99.90
2023-04-22T23:57:50.280Z,99.90
